Time;durP1;ratioP1;P1;durP2;ratioP2;P2;SDS_P1;SDS_P2;PMS_P1;PMS_P2;Temp;Humidity;BMP_temperature;BMP_pressure;BME280_temperature;BME280_humidity;BME280_pressure;Samples;Min_cycle;Max_cycle;Signal;HPM_P1;HPM_P2
2023/11/22 00:02:17;;;;;;;2.10;2.00;;;6.90;99.90;;;;;;5062842;28;20205;-78
2023/11/22 00:04:46;;;;;;;2.28;2.17;;;6.80;99.90;;;;;;5066127;28;20230;-80
2023/11/22 00:07:13;;;;;;;1.95;1.85;;;6.80;99.90;;;;;;5062506;28;20473;-83
2023/11/22 00:09:42;;;;;;;2.13;2.03;;;6.70;99.90;;;;;;5061676;28;20893;-80
2023/11/22 00:12:09;;;;;;;2.10;2.00;;;6.70;99.90;;;;;;5064254;28;20201;-78
2023/11/22 00:14:36;;;;;;;2.08;1.98;;;6.80;99.90;;;;;;5061704;28;20222;-81
2023/11/22 00:17:03;;;;;;;1.90;1.90;;;6.80;99.90;;;;;;5064531;28;20199;-80
2023/11/22 00:19:32;;;;;;;1.88;1.77;;;6.80;99.90;;;;;;5061197;28;20225;-79
2023/11/22 00:22:00;;;;;;;1.77;1.77;;;6.80;99.90;;;;;;5060202;28;20208;-81
2023/11/22 00:24:27;;;;;;;2.20;2.10;;;6.80;99.90;;;;;;5061922;28;20652;-79
2023/11/22 00:26:54;;;;;;;1.90;1.80;;;6.70;99.90;;;;;;5061433;28;20257;-82
2023/11/22 00:29:21;;;;;;;1.90;1.90;;;6.70;99.90;;;;;;5062628;28;20272;-82
2023/11/22 00:31:48;;;;;;;1.55;1.55;;;6.80;99.90;;;;;;5064897;28;20211;-83
2023/11/22 00:34:15;;;;;;;1.92;1.83;;;6.90;99.90;;;;;;5061436;28;20880;-83
2023/11/22 00:36:42;;;;;;;1.60;1.60;;;7.00;99.90;;;;;;5062383;28;20199;-79
2023/11/22 00:39:12;;;;;;;1.58;1.58;;;7.00;99.90;;;;;;5064534;28;20272;-79
2023/11/22 00:41:40;;;;;;;1.60;1.60;;;7.00;99.90;;;;;;5068369;28;20199;-78
2023/11/22 00:44:07;;;;;;;1.80;1.70;;;7.00;99.90;;;;;;5064064;28;20743;-81
2023/11/22 00:46:34;;;;;;;1.80;1.70;;;7.00;99.90;;;;;;5062073;28;20683;-79
2023/11/22 00:49:01;;;;;;;2.35;2.25;;;6.90;99.90;;;;;;5057367;28;20295;-81
2023/11/22 00:51:28;;;;;;;1.88;1.77;;;6.90;99.90;;;;;;5061754;28;20214;-80
2023/11/22 00:53:55;;;;;;;2.22;2.08;;;6.90;99.90;;;;;;5061896;28;20314;-83
2023/11/22 00:56:23;;;;;;;2.03;1.92;;;6.90;99.90;;;;;;5065588;28;20252;-79
2023/11/22 00:58:50;;;;;;;2.15;2.05;;;7.00;99.90;;;;;;5066734;28;20271;-78
2023/11/22 01:01:18;;;;;;;2.05;1.95;;;7.00;99.90;;;;;;5069898;28;20230;-81
2023/11/22 01:03:45;;;;;;;1.95;1.85;;;7.00;99.90;;;;;;5068307;28;20271;-85
2023/11/22 01:06:12;;;;;;;2.05;1.95;;;6.90;99.90;;;;;;5066777;28;20665;-79
2023/11/22 01:08:39;;;;;;;2.35;2.25;;;6.90;99.90;;;;;;5063116;28;20222;-77
2023/11/22 01:11:07;;;;;;;2.30;2.10;;;7.00;99.90;;;;;;5062453;28;20222;-79
2023/11/22 01:13:40;;;;;;;2.10;2.00;;;7.00;99.90;;;;;;5067199;28;20602;-79
2023/11/22 01:16:07;;;;;;;1.90;1.80;;;7.00;99.90;;;;;;5070622;28;20208;-80
2023/11/22 01:18:34;;;;;;;1.98;1.88;;;7.00;99.90;;;;;;5064936;28;20283;-79
2023/11/22 01:21:01;;;;;;;2.03;1.92;;;6.90;99.90;;;;;;5064369;28;20623;-84
2023/11/22 01:23:28;;;;;;;2.33;2.20;;;6.90;99.90;;;;;;5067086;28;20222;-77
2023/11/22 01:25:55;;;;;;;2.45;2.35;;;6.90;99.90;;;;;;5067919;28;20242;-80
2023/11/22 01:28:22;;;;;;;2.20;2.10;;;6.90;99.90;;;;;;5067945;28;20194;-78
2023/11/22 01:30:51;;;;;;;1.73;1.63;;;6.90;99.90;;;;;;5067841;28;20829;-78
2023/11/22 01:33:18;;;;;;;1.80;1.70;;;6.80;99.90;;;;;;5068384;28;20218;-79
2023/11/22 01:35:45;;;;;;;2.20;2.10;;;6.80;99.90;;;;;;5064851;28;20268;-78
2023/11/22 01:38:11;;;;;;;1.85;1.75;;;6.80;99.90;;;;;;5068546;28;20254;-78
2023/11/22 01:40:45;;;;;;;2.05;1.95;;;6.80;99.90;;;;;;5066437;28;21187;-79
2023/11/22 01:43:15;;;;;;;2.00;1.90;;;6.80;99.90;;;;;;5066792;28;20917;-82
2023/11/22 01:45:42;;;;;;;2.25;2.15;;;6.80;99.90;;;;;;5066307;28;20222;-80
2023/11/22 01:48:11;;;;;;;2.20;2.10;;;6.80;99.90;;;;;;5067215;28;20656;-83
2023/11/22 01:50:40;;;;;;;2.00;1.90;;;6.80;99.90;;;;;;5067216;28;20711;-79
2023/11/22 01:53:08;;;;;;;1.80;1.70;;;6.70;99.90;;;;;;5066051;28;20222;-79
2023/11/22 01:55:35;;;;;;;1.98;1.88;;;6.70;99.90;;;;;;5065518;28;20210;-79
2023/11/22 01:58:03;;;;;;;2.15;2.05;;;6.60;99.90;;;;;;5067960;28;20251;-78
2023/11/22 02:00:33;;;;;;;2.10;2.00;;;6.60;99.90;;;;;;5067740;28;20245;-79
2023/11/22 02:03:00;;;;;;;1.95;1.85;;;6.60;99.90;;;;;;5069029;28;20215;-80
2023/11/22 02:05:28;;;;;;;1.90;1.80;;;6.60;99.90;;;;;;5066005;28;20304;-79
2023/11/22 02:07:56;;;;;;;2.08;1.98;;;6.60;99.90;;;;;;5067881;28;20271;-81
2023/11/22 02:10:23;;;;;;;1.90;1.90;;;6.50;99.90;;;;;;5064094;28;20218;-79
2023/11/22 02:12:50;;;;;;;2.10;2.00;;;6.50;99.90;;;;;;5066975;28;20226;-79
2023/11/22 02:15:18;;;;;;;1.80;1.70;;;6.40;99.90;;;;;;5069354;28;20268;-80
2023/11/22 02:17:45;;;;;;;2.00;1.90;;;6.30;99.90;;;;;;5067104;28;20194;-78
2023/11/22 02:20:12;;;;;;;2.08;1.98;;;6.30;99.90;;;;;;5067626;28;20276;-79
2023/11/22 02:22:50;;;;;;;2.20;2.10;;;6.20;99.90;;;;;;5065260;28;20228;-79
2023/11/22 02:25:18;;;;;;;2.22;2.13;;;6.20;99.90;;;;;;5067311;28;20236;-79
2023/11/22 02:27:45;;;;;;;2.00;1.90;;;6.10;99.90;;;;;;5063088;28;20202;-79
2023/11/22 02:30:13;;;;;;;2.05;1.95;;;6.10;99.90;;;;;;5065578;28;20236;-80
2023/11/22 02:32:40;;;;;;;2.05;1.95;;;6.20;99.90;;;;;;5068031;28;20868;-79
2023/11/22 02:35:08;;;;;;;1.73;1.73;;;6.20;99.90;;;;;;5069481;28;20222;-81
2023/11/22 02:37:35;;;;;;;2.08;1.98;;;6.10;99.90;;;;;;5069743;28;20275;-80
2023/11/22 02:40:07;;;;;;;2.10;2.00;;;6.10;99.90;;;;;;5070938;28;20315;-79
2023/11/22 02:42:36;;;;;;;1.98;1.88;;;6.10;99.90;;;;;;5070526;28;20229;-79
2023/11/22 02:45:05;;;;;;;1.70;1.70;;;6.20;99.90;;;;;;5068131;28;20242;-79
2023/11/22 02:47:34;;;;;;;1.75;1.75;;;6.10;99.90;;;;;;5067369;28;20202;-78
2023/11/22 02:50:01;;;;;;;2.08;1.98;;;6.10;99.90;;;;;;5070851;28;20308;-79
2023/11/22 02:52:28;;;;;;;2.17;2.08;;;6.00;99.90;;;;;;5065970;28;20589;-79
2023/11/22 02:54:56;;;;;;;1.80;1.80;;;6.00;99.90;;;;;;5069684;28;20279;-80
2023/11/22 02:57:23;;;;;;;1.85;1.85;;;5.90;99.90;;;;;;5068512;28;20190;-79
2023/11/22 02:59:52;;;;;;;2.10;2.00;;;6.00;99.90;;;;;;5067510;28;20279;-79
2023/11/22 03:02:19;;;;;;;1.90;1.90;;;6.00;99.90;;;;;;5064559;28;20194;-82
2023/11/22 03:04:46;;;;;;;1.90;1.90;;;6.10;99.90;;;;;;5066360;28;20794;-78
2023/11/22 03:07:13;;;;;;;1.83;1.83;;;6.20;99.90;;;;;;5069684;28;20240;-82
2023/11/22 03:09:41;;;;;;;1.80;1.80;;;6.20;99.90;;;;;;5066665;28;20263;-79
2023/11/22 03:12:08;;;;;;;2.05;1.95;;;6.20;99.90;;;;;;5066587;28;20302;-79
2023/11/22 03:14:36;;;;;;;2.10;2.00;;;6.20;99.90;;;;;;5070315;28;20227;-79
2023/11/22 03:17:04;;;;;;;2.30;2.20;;;6.10;99.90;;;;;;5072091;28;20202;-80
2023/11/22 03:19:33;;;;;;;1.90;1.90;;;6.10;99.90;;;;;;5062495;28;20640;-77
2023/11/22 03:22:02;;;;;;;1.95;1.92;;;6.10;99.90;;;;;;5072071;28;20195;-79
2023/11/22 03:24:29;;;;;;;2.10;2.00;;;6.10;99.90;;;;;;5069302;28;20591;-80
2023/11/22 03:26:58;;;;;;;2.05;1.95;;;6.00;99.90;;;;;;5065344;28;20202;-84
2023/11/22 03:29:26;;;;;;;1.85;1.85;;;5.90;99.90;;;;;;5070464;28;20214;-80
2023/11/22 03:31:53;;;;;;;2.10;2.00;;;5.90;99.90;;;;;;5062175;28;20219;-79
2023/11/22 03:34:22;;;;;;;1.88;1.88;;;6.00;99.90;;;;;;5068740;28;20225;-80
2023/11/22 03:36:49;;;;;;;2.10;2.00;;;6.00;99.90;;;;;;5062768;28;20198;-79
2023/11/22 03:39:16;;;;;;;2.20;2.10;;;6.00;99.90;;;;;;5069688;28;21416;-78
2023/11/22 03:41:44;;;;;;;2.10;2.00;;;6.00;99.90;;;;;;5069430;28;20194;-80
2023/11/22 03:44:11;;;;;;;1.85;1.85;;;6.00;99.90;;;;;;5065565;28;20855;-78
2023/11/22 03:46:38;;;;;;;1.95;1.95;;;6.00;99.90;;;;;;5064550;28;20668;-80
2023/11/22 03:49:06;;;;;;;1.77;1.77;;;6.00;99.90;;;;;;5067867;28;20870;-77
2023/11/22 03:51:35;;;;;;;2.58;2.15;;;5.90;99.90;;;;;;5070705;28;20213;-79
2023/11/22 03:54:03;;;;;;;2.15;2.10;;;6.10;99.90;;;;;;5070298;28;20645;-79
2023/11/22 03:56:30;;;;;;;2.20;2.10;;;6.10;99.90;;;;;;5069529;28;20236;-79
2023/11/22 03:58:57;;;;;;;1.70;1.70;;;6.00;99.90;;;;;;5072009;28;20222;-79
2023/11/22 04:01:24;;;;;;;2.05;1.95;;;6.10;99.90;;;;;;5068722;28;20195;-79
2023/11/22 04:03:52;;;;;;;1.77;1.70;;;6.00;99.90;;;;;;5071505;28;20650;-79
2023/11/22 04:06:20;;;;;;;1.80;1.80;;;6.00;99.90;;;;;;5069206;28;20774;-79
2023/11/22 04:08:48;;;;;;;1.90;1.90;;;5.90;99.90;;;;;;5072313;28;20739;-78
2023/11/22 04:11:17;;;;;;;1.85;1.85;;;5.90;99.90;;;;;;5067525;28;20768;-78
2023/11/22 04:13:45;;;;;;;1.92;1.92;;;5.90;99.90;;;;;;5066294;28;20253;-78
2023/11/22 04:16:12;;;;;;;2.50;2.40;;;5.90;99.90;;;;;;5069271;28;20194;-80
2023/11/22 04:18:40;;;;;;;2.70;2.50;;;6.00;99.90;;;;;;5069078;28;20229;-83
2023/11/22 04:21:07;;;;;;;2.20;2.10;;;6.10;99.90;;;;;;5071243;28;20197;-84
2023/11/22 04:23:34;;;;;;;2.33;2.22;;;6.10;99.90;;;;;;5072886;28;20218;-80
2023/11/22 04:26:03;;;;;;;2.40;2.30;;;6.10;99.90;;;;;;5066732;28;20256;-86
2023/11/22 04:28:30;;;;;;;2.25;2.15;;;6.10;99.90;;;;;;5064565;28;20194;-84
2023/11/22 04:30:58;;;;;;;2.00;1.90;;;6.10;99.90;;;;;;5064639;28;20213;-79
2023/11/22 04:33:27;;;;;;;2.00;1.90;;;6.20;99.90;;;;;;5066471;28;20866;-78
2023/11/22 04:35:55;;;;;;;2.28;2.17;;;6.20;99.90;;;;;;5068331;28;20202;-78
2023/11/22 04:38:22;;;;;;;2.00;2.00;;;6.10;99.90;;;;;;5063113;28;20229;-85
2023/11/22 04:40:49;;;;;;;1.92;1.92;;;6.10;99.90;;;;;;5067309;28;20198;-79
2023/11/22 04:43:17;;;;;;;2.00;1.90;;;6.20;99.90;;;;;;5066703;28;20285;-79
2023/11/22 04:45:44;;;;;;;1.90;1.90;;;6.30;99.90;;;;;;5064676;28;20295;-80
2023/11/22 04:48:11;;;;;;;1.73;1.73;;;6.30;99.90;;;;;;5070772;28;20224;-79
2023/11/22 04:50:38;;;;;;;2.10;2.00;;;6.50;99.90;;;;;;5068680;28;20218;-78
2023/11/22 04:53:05;;;;;;;1.63;1.63;;;6.70;99.90;;;;;;5066619;28;20684;-80
2023/11/22 04:55:33;;;;;;;2.22;2.13;;;6.70;99.90;;;;;;5065585;28;20744;-89
2023/11/22 04:58:00;;;;;;;3.10;2.90;;;6.60;99.90;;;;;;5067254;28;20206;-81
2023/11/22 05:00:28;;;;;;;3.20;3.00;;;6.50;99.90;;;;;;5066876;28;20676;-79
2023/11/22 05:02:55;;;;;;;3.05;2.95;;;6.50;99.90;;;;;;5067764;28;20279;-81
2023/11/22 05:05:22;;;;;;;2.75;2.58;;;6.40;99.90;;;;;;5065270;28;20226;-82
2023/11/22 05:07:50;;;;;;;2.50;2.40;;;6.40;99.90;;;;;;5064878;28;20680;-83
2023/11/22 05:10:17;;;;;;;2.28;2.17;;;6.30;99.90;;;;;;5067094;28;20223;-82
2023/11/22 05:12:44;;;;;;;2.80;2.60;;;6.20;99.90;;;;;;5061941;28;20265;-78
2023/11/22 05:15:14;;;;;;;2.20;2.10;;;6.20;99.90;;;;;;5065723;28;20725;-79
2023/11/22 05:17:42;;;;;;;1.98;1.88;;;6.20;99.90;;;;;;5066075;28;20289;-80
2023/11/22 05:20:10;;;;;;;2.10;2.00;;;6.10;99.90;;;;;;5068395;28;20283;-79
2023/11/22 05:22:37;;;;;;;1.98;1.88;;;6.10;99.90;;;;;;5066739;28;20222;-78
2023/11/22 05:25:06;;;;;;;2.40;2.30;;;6.00;99.90;;;;;;5068925;28;20834;-79
2023/11/22 05:27:33;;;;;;;2.03;1.92;;;6.00;99.90;;;;;;5067664;28;20697;-86
2023/11/22 05:30:01;;;;;;;2.10;2.00;;;6.10;99.90;;;;;;5068297;28;20990;-80
2023/11/22 05:32:28;;;;;;;2.40;2.30;;;6.10;99.90;;;;;;5069017;28;20799;-83
2023/11/22 05:34:57;;;;;;;2.42;2.33;;;6.10;99.90;;;;;;5064378;28;20242;-82
2023/11/22 05:37:24;;;;;;;2.33;2.22;;;6.00;99.90;;;;;;5066121;28;20201;-78
2023/11/22 05:39:51;;;;;;;2.38;2.28;;;6.00;99.90;;;;;;5067628;28;20272;-79
2023/11/22 05:42:18;;;;;;;2.40;2.30;;;6.00;99.90;;;;;;5067761;28;20198;-80
2023/11/22 05:44:45;;;;;;;2.25;2.15;;;6.00;99.90;;;;;;5065201;28;20272;-81
2023/11/22 05:47:13;;;;;;;2.40;2.30;;;6.00;99.90;;;;;;5069909;28;20202;-84
2023/11/22 05:49:40;;;;;;;2.50;2.40;;;5.90;99.90;;;;;;5061220;28;20222;-80
2023/11/22 05:52:08;;;;;;;1.83;1.73;;;5.90;99.90;;;;;;5063323;28;20222;-80
2023/11/22 05:54:36;;;;;;;2.60;2.50;;;5.90;99.90;;;;;;5068996;28;20270;-80
2023/11/22 05:57:04;;;;;;;2.50;2.40;;;5.90;99.90;;;;;;5061167;28;20891;-80
2023/11/22 05:59:31;;;;;;;2.30;2.20;;;5.90;99.90;;;;;;5067568;28;20233;-78
2023/11/22 06:01:58;;;;;;;2.42;2.33;;;5.90;99.90;;;;;;5066479;28;20202;-80
2023/11/22 06:04:25;;;;;;;2.58;2.38;;;6.00;99.90;;;;;;5065393;28;20818;-80
2023/11/22 06:06:52;;;;;;;2.60;2.50;;;6.00;99.90;;;;;;5068777;28;20546;-82
2023/11/22 06:09:22;;;;;;;2.60;2.40;;;6.00;99.90;;;;;;5067570;28;20720;-81
2023/11/22 06:11:49;;;;;;;2.55;2.45;;;6.10;99.90;;;;;;5069047;28;20243;-78
2023/11/22 06:14:17;;;;;;;2.20;2.10;;;6.00;99.90;;;;;;5066150;28;20230;-80
2023/11/22 06:16:44;;;;;;;2.50;2.40;;;6.00;99.90;;;;;;5066924;28;20198;-77
2023/11/22 06:19:11;;;;;;;2.20;2.10;;;6.00;99.90;;;;;;5066777;28;20241;-76
2023/11/22 06:21:38;;;;;;;2.83;2.72;;;6.00;99.90;;;;;;5066522;28;20202;-77
2023/11/22 06:24:08;;;;;;;2.30;2.20;;;6.00;99.90;;;;;;5062777;28;20265;-82
2023/11/22 06:26:38;;;;;;;2.40;2.30;;;6.00;99.90;;;;;;5062976;28;20912;-84
2023/11/22 06:29:06;;;;;;;2.30;2.20;;;6.00;99.90;;;;;;5057004;28;20306;-78
2023/11/22 06:31:33;;;;;;;2.30;2.20;;;6.10;99.90;;;;;;5063628;28;20701;-79
2023/11/22 06:34:01;;;;;;;2.05;1.95;;;6.10;99.90;;;;;;5060739;28;20244;-80
2023/11/22 06:36:29;;;;;;;2.30;2.20;;;6.10;99.90;;;;;;5058705;28;20931;-77
2023/11/22 06:38:56;;;;;;;2.42;2.33;;;6.00;99.90;;;;;;5061956;28;20230;-78
2023/11/22 06:41:23;;;;;;;2.20;2.10;;;6.00;99.90;;;;;;5064413;28;20259;-79
2023/11/22 06:43:52;;;;;;;2.30;2.20;;;6.00;99.90;;;;;;5064008;28;20378;-80
2023/11/22 06:46:19;;;;;;;2.30;2.20;;;5.90;99.90;;;;;;5064920;28;20203;-81
2023/11/22 06:48:47;;;;;;;2.08;1.98;;;5.90;99.90;;;;;;5063428;28;20222;-82
2023/11/22 06:51:15;;;;;;;2.08;1.98;;;6.00;99.90;;;;;;5063646;28;20608;-83
2023/11/22 06:53:42;;;;;;;2.28;2.17;;;6.00;99.90;;;;;;5058327;28;20230;-80
2023/11/22 06:56:10;;;;;;;2.20;2.10;;;6.10;99.90;;;;;;5060003;28;20206;-77
2023/11/22 06:58:37;;;;;;;2.30;2.20;;;6.20;99.90;;;;;;5060724;28;20205;-81
2023/11/22 07:01:05;;;;;;;3.00;2.80;;;6.30;99.90;;;;;;5057638;28;20203;-78
2023/11/22 07:03:32;;;;;;;2.90;2.70;;;6.30;99.90;;;;;;5057781;28;20218;-76
2023/11/22 07:05:59;;;;;;;2.70;2.50;;;6.40;99.90;;;;;;5059880;28;20213;-83
2023/11/22 07:08:28;;;;;;;2.60;2.50;;;6.40;99.90;;;;;;5061190;28;20276;-80
2023/11/22 07:10:56;;;;;;;2.70;2.50;;;6.50;99.90;;;;;;5062775;28;20199;-78
2023/11/22 07:13:24;;;;;;;2.70;2.50;;;6.50;99.90;;;;;;5062986;28;20300;-79
2023/11/22 07:15:51;;;;;;;2.92;2.72;;;6.50;99.90;;;;;;5062902;28;20202;-89
2023/11/22 07:18:19;;;;;;;2.70;2.60;;;6.50;99.90;;;;;;5061451;28;20206;-79
2023/11/22 07:20:48;;;;;;;2.63;2.53;;;6.50;99.90;;;;;;5065098;28;20271;-78
2023/11/22 07:23:15;;;;;;;2.28;2.17;;;6.60;99.90;;;;;;5066739;28;20221;-81
2023/11/22 07:25:43;;;;;;;2.30;2.20;;;6.50;99.90;;;;;;5065496;28;20303;-79
2023/11/22 07:28:10;;;;;;;2.28;2.17;;;6.60;99.90;;;;;;5063559;28;20680;-79
2023/11/22 07:30:40;;;;;;;2.25;2.15;;;6.70;99.90;;;;;;5063523;28;20265;-81
2023/11/22 07:33:08;;;;;;;2.30;2.20;;;6.70;99.90;;;;;;5068154;28;20245;-80
2023/11/22 07:35:36;;;;;;;2.33;2.10;;;6.80;99.90;;;;;;5065923;28;20759;-80
2023/11/22 07:38:04;;;;;;;2.20;2.10;;;6.80;99.90;;;;;;5067448;28;20202;-82
2023/11/22 07:40:32;;;;;;;2.17;2.08;;;6.90;99.90;;;;;;5068567;28;20837;-84
2023/11/22 07:42:59;;;;;;;2.30;2.20;;;7.00;99.90;;;;;;5065741;28;20221;-85
2023/11/22 07:45:26;;;;;;;2.30;2.20;;;7.10;99.90;;;;;;5064353;28;21102;-78
2023/11/22 07:47:57;;;;;;;2.25;2.15;;;7.10;99.90;;;;;;5065004;28;20203;-80
2023/11/22 07:50:25;;;;;;;1.98;1.88;;;7.10;99.90;;;;;;5064311;28;20228;-81
2023/11/22 07:52:54;;;;;;;1.80;1.80;;;7.20;99.90;;;;;;5062634;28;20250;-79
2023/11/22 07:55:22;;;;;;;2.15;1.95;;;7.20;99.90;;;;;;5069846;28;20275;-80
2023/11/22 07:57:50;;;;;;;2.33;2.22;;;7.90;99.90;;;;;;5064322;28;20200;-78
2023/11/22 08:00:19;;;;;;;11.57;8.63;;;9.00;99.90;;;;;;5065184;28;20218;-80
2023/11/22 08:02:46;;;;;;;12.57;7.47;;;10.10;99.90;;;;;;5059162;28;20194;-76
2023/11/22 08:05:15;;;;;;;21.85;18.38;;;11.10;99.90;;;;;;5063358;28;20222;-79
2023/11/22 08:07:44;;;;;;;13.35;11.32;;;11.90;99.90;;;;;;5059318;28;20209;-82
2023/11/22 08:10:18;;;;;;;6.88;5.95;;;12.70;99.90;;;;;;5062470;28;20226;-85
2023/11/22 08:12:46;;;;;;;5.03;4.53;;;13.20;99.90;;;;;;5059479;28;20220;-81
2023/11/22 08:15:15;;;;;;;3.85;2.80;;;13.90;99.90;;;;;;5065946;28;20293;-77
2023/11/22 08:17:42;;;;;;;3.13;2.80;;;14.40;99.90;;;;;;5065492;28;20199;-81
2023/11/22 08:20:13;;;;;;;2.17;2.08;;;14.80;99.90;;;;;;5061099;28;20272;-84
2023/11/22 08:22:40;;;;;;;2.55;2.40;;;15.00;99.90;;;;;;5062417;28;20198;-86
2023/11/22 08:25:12;;;;;;;3.33;3.00;;;15.30;99.90;;;;;;5063270;28;20225;-79
2023/11/22 08:27:41;;;;;;;6.28;5.07;;;15.50;99.90;;;;;;5065956;28;20199;-78
2023/11/22 08:30:13;;;;;;;3.70;3.40;;;15.70;99.90;;;;;;5058052;28;20218;-82
2023/11/22 08:32:41;;;;;;;2.53;2.33;;;15.90;99.90;;;;;;5059001;28;20240;-80
2023/11/22 08:35:09;;;;;;;2.20;2.10;;;16.10;99.90;;;;;;5058249;28;20931;-84
2023/11/22 08:37:37;;;;;;;1.90;1.80;;;16.40;99.90;;;;;;5057456;28;20194;-80
2023/11/22 08:40:07;;;;;;;2.05;1.88;;;16.80;99.90;;;;;;5056040;28;20223;-78
2023/11/22 08:42:35;;;;;;;1.77;1.67;;;17.10;99.90;;;;;;5055940;28;20202;-79
2023/11/22 08:45:04;;;;;;;2.00;1.30;;;17.20;99.90;;;;;;5059934;28;20241;-79
2023/11/22 08:47:31;;;;;;;1.42;1.30;;;17.20;99.90;;;;;;5059426;28;20787;-84
2023/11/22 08:49:58;;;;;;;1.55;1.45;;;17.10;99.90;;;;;;5061100;28;20225;-81
2023/11/22 08:52:25;;;;;;;1.65;1.55;;;17.10;99.90;;;;;;5059094;28;20790;-80
2023/11/22 08:54:52;;;;;;;1.60;1.50;;;17.20;99.90;;;;;;5068032;28;20222;-78
2023/11/22 08:57:20;;;;;;;1.95;1.52;;;17.30;99.90;;;;;;5061846;28;20225;-82
2023/11/22 08:59:47;;;;;;;1.70;1.60;;;17.20;99.90;;;;;;5058209;28;20245;-82
2023/11/22 09:02:17;;;;;;;1.60;1.50;;;17.50;99.90;;;;;;5060362;28;20813;-76
2023/11/22 09:04:44;;;;;;;1.70;1.60;;;18.30;99.90;;;;;;5059763;28;20225;-76
2023/11/22 09:07:14;;;;;;;2.78;2.05;;;19.90;99.90;;;;;;5064307;28;20606;-79
2023/11/22 09:09:43;;;;;;;1.80;1.70;;;21.60;99.90;;;;;;5059337;28;20279;-84
2023/11/22 09:12:12;;;;;;;4.85;1.75;;;23.00;99.90;;;;;;5064794;28;20731;-77
2023/11/22 09:14:41;;;;;;;3.10;2.17;;;24.20;93.70;;;;;;5063200;28;20252;-80
2023/11/22 09:17:09;;;;;;;2.03;1.83;;;25.20;91.10;;;;;;5069648;28;20302;-85
2023/11/22 09:19:38;;;;;;;1.90;1.70;;;26.40;86.60;;;;;;5062894;28;20272;-84
2023/11/22 09:22:07;;;;;;;2.35;2.10;;;27.00;74.50;;;;;;5060459;28;20289;-80
2023/11/22 09:24:36;;;;;;;2.33;1.83;;;27.50;68.90;;;;;;5060093;28;20221;-80
2023/11/22 09:27:05;;;;;;;2.40;2.20;;;27.40;64.60;;;;;;5064902;28;20213;-78
2023/11/22 09:29:32;;;;;;;2.05;1.95;;;27.30;61.40;;;;;;5064373;28;20712;-79
2023/11/22 09:32:00;;;;;;;1.70;1.60;;;26.90;62.10;;;;;;5059848;28;20206;-78
2023/11/22 09:34:27;;;;;;;1.70;1.60;;;26.20;61.70;;;;;;5067596;28;20344;-78
2023/11/22 09:36:56;;;;;;;2.85;1.60;;;24.90;64.80;;;;;;5060524;28;20232;-76
2023/11/22 09:39:24;;;;;;;1.58;1.48;;;23.80;67.50;;;;;;5059259;28;20222;-80
2023/11/22 09:41:52;;;;;;;1.48;1.38;;;22.50;71.40;;;;;;5059074;28;20253;-78
2023/11/22 09:44:20;;;;;;;1.63;1.50;;;21.30;73.80;;;;;;5060944;28;20650;-81
2023/11/22 09:46:50;;;;;;;1.50;1.30;;;20.30;78.70;;;;;;5059540;28;20202;-79
2023/11/22 09:49:24;;;;;;;1.50;1.40;;;19.70;82.30;;;;;;5056713;28;20272;-81
2023/11/22 09:51:55;;;;;;;2.72;1.40;;;19.50;85.10;;;;;;5056500;28;20284;-78
2023/11/22 09:54:29;;;;;;;1.80;1.60;;;19.50;86.00;;;;;;5061718;28;20229;-77
2023/11/22 09:57:00;;;;;;;1.77;1.27;;;19.50;85.10;;;;;;5057293;28;20233;-78
2023/11/22 09:59:29;;;;;;;1.75;1.40;;;19.40;86.10;;;;;;5055800;28;20443;-77
2023/11/22 10:01:59;;;;;;;2.28;1.80;;;19.00;86.60;;;;;;5062408;28;20721;-77
2023/11/22 10:04:28;;;;;;;1.33;1.23;;;18.80;88.10;;;;;;5064419;28;20214;-78
2023/11/22 10:06:58;;;;;;;1.52;1.42;;;18.70;88.10;;;;;;5058657;28;20202;-79
2023/11/22 10:09:29;;;;;;;1.60;1.50;;;18.50;88.40;;;;;;5061912;28;20225;-77
2023/11/22 10:11:59;;;;;;;1.90;1.70;;;18.70;90.00;;;;;;5061654;28;20666;-79
2023/11/22 10:14:26;;;;;;;1.35;1.25;;;19.00;89.90;;;;;;5061951;28;20230;-77
2023/11/22 10:17:00;;;;;;;1.48;1.38;;;19.40;90.00;;;;;;5060059;28;20206;-76
2023/11/22 10:19:27;;;;;;;1.48;1.38;;;19.50;89.00;;;;;;5059009;28;20229;-80
2023/11/22 10:22:05;;;;;;;1.33;1.23;;;19.60;88.40;;;;;;5063046;28;20202;-81
2023/11/22 10:24:34;;;;;;;1.50;1.40;;;19.50;88.30;;;;;;5065344;28;20257;-80
2023/11/22 10:27:01;;;;;;;1.38;1.20;;;19.70;90.60;;;;;;5065800;28;20293;-82
2023/11/22 10:29:30;;;;;;;1.30;1.20;;;19.50;86.60;;;;;;5066141;28;20826;-82
2023/11/22 10:31:58;;;;;;;2.53;1.30;;;19.30;89.60;;;;;;5067737;28;20209;-83
2023/11/22 10:34:26;;;;;;;1.63;1.20;;;19.00;89.30;;;;;;5063739;28;20227;-82
2023/11/22 10:36:54;;;;;;;1.55;1.42;;;18.80;90.00;;;;;;5063489;28;20198;-81
2023/11/22 10:39:21;;;;;;;1.73;1.63;;;19.00;90.20;;;;;;5069749;28;20704;-80
2023/11/22 10:41:51;;;;;;;1.33;1.20;;;19.30;90.20;;;;;;5072081;28;20722;-84
2023/11/22 10:44:21;;;;;;;1.65;1.55;;;18.90;87.10;;;;;;5067000;28;20297;-86
2023/11/22 10:46:48;;;;;;;1.70;1.60;;;18.60;88.90;;;;;;5068822;28;20229;-85
2023/11/22 10:49:15;;;;;;;1.50;1.40;;;18.60;90.60;;;;;;5066986;28;20297;-81
2023/11/22 10:51:45;;;;;;;1.50;1.40;;;18.70;90.50;;;;;;5067042;28;20867;-82
2023/11/22 10:54:13;;;;;;;1.50;1.40;;;18.80;90.90;;;;;;5062702;28;20290;-85
2023/11/22 10:56:42;;;;;;;1.80;1.70;;;19.30;91.10;;;;;;5066028;28;20630;-78
2023/11/22 10:59:15;;;;;;;1.60;1.50;;;19.30;90.60;;;;;;5070303;28;20222;-85
2023/11/22 11:01:45;;;;;;;1.50;1.40;;;19.70;90.50;;;;;;5069826;28;20203;-78
2023/11/22 11:04:20;;;;;;;1.38;1.25;;;19.90;90.20;;;;;;5070774;28;20696;-79
2023/11/22 11:06:52;;;;;;;1.42;1.33;;;20.20;90.00;;;;;;5073285;28;20247;-84
2023/11/22 11:09:26;;;;;;;1.88;1.17;;;20.10;88.50;;;;;;5067398;28;20236;-80
2023/11/22 11:11:53;;;;;;;1.50;1.40;;;20.10;89.50;;;;;;5069651;28;20205;-85
2023/11/22 11:14:22;;;;;;;1.35;1.25;;;20.00;89.10;;;;;;5070003;28;20622;-80
2023/11/22 11:16:53;;;;;;;0.93;0.93;;;19.90;87.70;;;;;;5081156;28;20198;-77
2023/11/22 11:19:22;;;;;;;1.20;1.10;;;19.90;88.90;;;;;;5075321;28;20217;-80
2023/11/22 11:21:50;;;;;;;1.20;1.10;;;19.50;86.20;;;;;;5078855;28;20625;-78
2023/11/22 11:24:18;;;;;;;1.10;1.00;;;19.40;86.00;;;;;;5078044;28;20229;-78
2023/11/22 11:26:52;;;;;;;1.23;1.13;;;19.20;84.60;;;;;;5075738;28;20206;-77
2023/11/22 11:29:34;;;;;;;1.40;1.17;;;19.20;87.30;;;;;;5075813;28;20244;-78
2023/11/22 11:32:03;;;;;;;1.40;1.30;;;19.20;83.60;;;;;;5072893;28;20194;-78
2023/11/22 11:34:30;;;;;;;1.23;1.13;;;19.20;85.10;;;;;;5068769;28;20214;-83
2023/11/22 11:36:59;;;;;;;1.40;1.30;;;19.00;85.00;;;;;;5063937;28;20229;-77
2023/11/22 11:39:30;;;;;;;1.38;1.20;;;19.00;85.40;;;;;;5068830;28;20323;-83
2023/11/22 11:42:09;;;;;;;1.20;1.10;;;18.80;84.10;;;;;;5069115;28;20289;-77
2023/11/22 11:44:38;;;;;;;1.20;1.20;;;18.70;84.70;;;;;;5067877;28;20297;-84
2023/11/22 11:47:14;;;;;;;1.08;1.00;;;18.40;81.60;;;;;;5064444;28;20220;-82
2023/11/22 11:49:42;;;;;;;3.35;1.20;;;18.20;82.20;;;;;;5062928;28;20209;-79
2023/11/22 11:52:09;;;;;;;1.65;1.25;;;18.10;81.10;;;;;;5073099;28;20755;-80
2023/11/22 11:54:36;;;;;;;1.20;1.10;;;17.90;80.50;;;;;;5069176;28;20234;-81
2023/11/22 11:57:03;;;;;;;2.13;1.25;;;17.70;82.20;;;;;;5065693;28;20740;-81
2023/11/22 11:59:32;;;;;;;1.45;1.30;;;17.70;80.80;;;;;;5067998;28;20876;-84
2023/11/22 12:02:01;;;;;;;1.00;1.00;;;17.60;81.50;;;;;;5064755;28;20918;-80
2023/11/22 12:04:28;;;;;;;1.85;1.75;;;17.70;82.50;;;;;;5064824;28;20228;-82
2023/11/22 12:06:55;;;;;;;1.10;1.10;;;18.00;80.40;;;;;;5071321;28;20449;-88
2023/11/22 12:09:26;;;;;;;1.20;1.20;;;18.10;79.40;;;;;;5070977;28;20218;-86
2023/11/22 12:11:54;;;;;;;2.40;1.25;;;18.20;76.90;;;;;;5071236;28;20241;-82
2023/11/22 12:14:21;;;;;;;2.45;1.13;;;18.30;77.40;;;;;;5062533;28;20317;-86
2023/11/22 12:16:48;;;;;;;0.70;0.70;;;18.30;74.50;;;;;;5065779;28;20574;-82
2023/11/22 12:19:24;;;;;;;3.00;0.80;;;18.40;73.50;;;;;;5059734;28;20261;-78
2023/11/22 12:21:51;;;;;;;1.13;1.08;;;18.30;72.10;;;;;;5067748;28;20197;-81
2023/11/22 12:24:19;;;;;;;2.20;2.00;;;18.30;71.70;;;;;;5066689;28;20230;-82
2023/11/22 12:26:48;;;;;;;2.55;2.35;;;18.30;72.70;;;;;;5067803;28;20209;-84
2023/11/22 12:29:16;;;;;;;2.05;1.77;;;18.10;71.40;;;;;;5060783;28;21786;-80
2023/11/22 12:31:47;;;;;;;1.90;1.73;;;18.00;70.30;;;;;;5062471;28;20281;-78
2023/11/22 12:34:16;;;;;;;1.70;1.60;;;18.00;70.10;;;;;;5064224;28;20303;-78
2023/11/22 12:36:47;;;;;;;3.75;3.05;;;18.10;71.30;;;;;;5058261;28;20257;-75
2023/11/22 12:39:16;;;;;;;6.32;5.20;;;18.10;71.40;;;;;;5065032;28;20915;-76
2023/11/22 12:41:50;;;;;;;2.30;2.10;;;18.30;71.80;;;;;;5064625;28;20244;-78
2023/11/22 12:44:17;;;;;;;1.30;1.20;;;18.20;71.10;;;;;;5065553;28;20284;-79
2023/11/22 12:46:55;;;;;;;0.90;0.90;;;18.10;69.60;;;;;;5059800;28;20206;-74
2023/11/22 12:49:22;;;;;;;0.90;0.90;;;18.00;68.60;;;;;;5058879;28;20221;-74
2023/11/22 12:51:52;;;;;;;0.85;0.85;;;18.00;70.50;;;;;;5057579;28;20268;-76
2023/11/22 12:54:21;;;;;;;0.80;0.80;;;17.90;69.20;;;;;;5059859;28;20916;-76
2023/11/22 12:56:50;;;;;;;0.90;0.90;;;17.90;70.80;;;;;;5058427;28;20199;-82
2023/11/22 12:59:18;;;;;;;1.02;1.00;;;18.00;70.70;;;;;;5057524;28;20267;-78